sensor_id;sensor_type;location;lat;lon;timestamp;pressure;altitude;pressure_sealevel;temperature;humidity
34925;BME280;21130;51.728;8.748;2023-06-22T00:04:17;100697.34;;;17.02;100.00
34925;BME280;21130;51.728;8.748;2023-06-22T00:06:43;100691.19;;;17.05;100.00
34925;BME280;21130;51.728;8.748;2023-06-22T00:09:09;100686.38;;;17.11;100.00
34925;BME280;21130;51.728;8.748;2023-06-22T00:11:36;100686.66;;;17.15;100.00
34925;BME280;21130;51.728;8.748;2023-06-22T00:14:02;100681.59;;;17.17;100.00
34925;BME280;21130;51.728;8.748;2023-06-22T00:16:29;100689.16;;;17.21;100.00
34925;BME280;21130;51.728;8.748;2023-06-22T00:18:55;100688.31;;;17.26;100.00
34925;BME280;21130;51.728;8.748;2023-06-22T00:21:26;100702.03;;;17.27;100.00
34925;BME280;21130;51.728;8.748;2023-06-22T00:23:53;100691.69;;;17.28;100.00
34925;BME280;21130;51.728;8.748;2023-06-22T00:26:19;100671.75;;;17.30;100.00
34925;BME280;21130;51.728;8.748;2023-06-22T00:28:46;100671.47;;;17.31;100.00
34925;BME280;21130;51.728;8.748;2023-06-22T00:31:13;100668.34;;;17.33;100.00
34925;BME280;21130;51.728;8.748;2023-06-22T00:33:39;100658.28;;;17.32;100.00
34925;BME280;21130;51.728;8.748;2023-06-22T00:36:06;100654.63;;;17.31;100.00
34925;BME280;21130;51.728;8.748;2023-06-22T00:38:34;100657.41;;;17.36;100.00
34925;BME280;21130;51.728;8.748;2023-06-22T00:41:05;100656.84;;;17.34;100.00
34925;BME280;21130;51.728;8.748;2023-06-22T00:43:32;100640.59;;;17.31;100.00
34925;BME280;21130;51.728;8.748;2023-06-22T00:45:58;100646.50;;;17.30;100.00
34925;BME280;21130;51.728;8.748;2023-06-22T00:48:25;100636.09;;;17.30;100.00
34925;BME280;21130;51.728;8.748;2023-06-22T00:50:52;100637.50;;;17.33;100.00
34925;BME280;21130;51.728;8.748;2023-06-22T00:53:19;100635.56;;;17.33;100.00
34925;BME280;21130;51.728;8.748;2023-06-22T00:55:47;100636.09;;;17.35;100.00
34925;BME280;21130;51.728;8.748;2023-06-22T00:58:17;100640.31;;;17.33;100.00
34925;BME280;21130;51.728;8.748;2023-06-22T01:00:48;100633.84;;;17.32;100.00
34925;BME280;21130;51.728;8.748;2023-06-22T01:03:14;100631.06;;;17.32;100.00
34925;BME280;21130;51.728;8.748;2023-06-22T01:05:42;100624.59;;;17.32;100.00
34925;BME280;21130;51.728;8.748;2023-06-22T01:08:29;100632.19;;;17.31;100.00
34925;BME280;21130;51.728;8.748;2023-06-22T01:11:01;100634.16;;;17.31;100.00
34925;BME280;21130;51.728;8.748;2023-06-22T01:13:35;100633.31;;;17.30;100.00
34925;BME280;21130;51.728;8.748;2023-06-22T01:16:08;100634.72;;;17.27;100.00
34925;BME280;21130;51.728;8.748;2023-06-22T01:18:36;100646.81;;;17.28;100.00
34925;BME280;21130;51.728;8.748;2023-06-22T01:21:06;100639.78;;;17.25;100.00
34925;BME280;21130;51.728;8.748;2023-06-22T01:23:47;100636.13;;;17.25;100.00
34925;BME280;21130;51.728;8.748;2023-06-22T01:26:20;100637.53;;;17.22;100.00
34925;BME280;21130;51.728;8.748;2023-06-22T01:28:50;100638.94;;;17.20;100.00
34925;BME280;21130;51.728;8.748;2023-06-22T01:31:20;100640.09;;;17.19;100.00
34925;BME280;21130;51.728;8.748;2023-06-22T01:33:50;100637.56;;;17.17;100.00
34925;BME280;21130;51.728;8.748;2023-06-22T01:36:18;100633.09;;;17.16;100.00
34925;BME280;21130;51.728;8.748;2023-06-22T01:38:47;100632.25;;;17.16;100.00
34925;BME280;21130;51.728;8.748;2023-06-22T01:41:14;100629.44;;;17.16;100.00
34925;BME280;21130;51.728;8.748;2023-06-22T01:43:42;100628.31;;;17.17;100.00
34925;BME280;21130;51.728;8.748;2023-06-22T01:46:11;100624.38;;;17.18;100.00
34925;BME280;21130;51.728;8.748;2023-06-22T01:48:38;100623.84;;;17.16;100.00
34925;BME280;21130;51.728;8.748;2023-06-22T01:51:05;100633.09;;;17.16;100.00
34925;BME280;21130;51.728;8.748;2023-06-22T01:53:32;100639.81;;;17.15;100.00
34925;BME280;21130;51.728;8.748;2023-06-22T01:55:58;100645.13;;;17.17;100.00
34925;BME280;21130;51.728;8.748;2023-06-22T01:58:27;100641.50;;;17.16;100.00
34925;BME280;21130;51.728;8.748;2023-06-22T02:00:58;100641.19;;;17.18;100.00
34925;BME280;21130;51.728;8.748;2023-06-22T02:03:34;100639.53;;;17.17;100.00
34925;BME280;21130;51.728;8.748;2023-06-22T02:06:05;100638.69;;;17.16;100.00
34925;BME280;21130;51.728;8.748;2023-06-22T02:08:37;100639.53;;;17.17;100.00
34925;BME280;21130;51.728;8.748;2023-06-22T02:11:06;100640.09;;;17.19;100.00
34925;BME280;21130;51.728;8.748;2023-06-22T02:13:33;100644.00;;;17.18;100.00
34925;BME280;21130;51.728;8.748;2023-06-22T02:16:00;100648.50;;;17.19;100.00
34925;BME280;21130;51.728;8.748;2023-06-22T02:18:27;100652.97;;;17.20;100.00
34925;BME280;21130;51.728;8.748;2023-06-22T02:20:55;100645.94;;;17.22;100.00
34925;BME280;21130;51.728;8.748;2023-06-22T02:23:22;100648.47;;;17.24;100.00
34925;BME280;21130;51.728;8.748;2023-06-22T02:25:48;100658.28;;;17.26;100.00
34925;BME280;21130;51.728;8.748;2023-06-22T02:28:15;100655.50;;;17.26;100.00
34925;BME280;21130;51.728;8.748;2023-06-22T02:30:41;100653.25;;;17.28;100.00
34925;BME280;21130;51.728;8.748;2023-06-22T02:33:08;100656.31;;;17.32;100.00
34925;BME280;21130;51.728;8.748;2023-06-22T02:35:34;100654.63;;;17.31;100.00
34925;BME280;21130;51.728;8.748;2023-06-22T02:38:03;100663.88;;;17.37;100.00
34925;BME280;21130;51.728;8.748;2023-06-22T02:40:30;100664.97;;;17.41;100.00
34925;BME280;21130;51.728;8.748;2023-06-22T02:42:57;100656.81;;;17.44;100.00
34925;BME280;21130;51.728;8.748;2023-06-22T02:45:26;100656.53;;;17.46;100.00
34925;BME280;21130;51.728;8.748;2023-06-22T02:47:53;100653.44;;;17.47;100.00
34925;BME280;21130;51.728;8.748;2023-06-22T02:50:19;100654.25;;;17.53;100.00
34925;BME280;21130;51.728;8.748;2023-06-22T02:52:46;100657.34;;;17.52;100.00
34925;BME280;21130;51.728;8.748;2023-06-22T02:55:14;100650.31;;;17.54;100.00
34925;BME280;21130;51.728;8.748;2023-06-22T02:57:40;100651.72;;;17.57;100.00
34925;BME280;21130;51.728;8.748;2023-06-22T03:00:11;100657.88;;;17.59;100.00
34925;BME280;21130;51.728;8.748;2023-06-22T03:02:42;100654.50;;;17.57;100.00
34925;BME280;21130;51.728;8.748;2023-06-22T03:05:09;100650.88;;;17.56;100.00
34925;BME280;21130;51.728;8.748;2023-06-22T03:07:38;100650.88;;;17.56;100.00
34925;BME280;21130;51.728;8.748;2023-06-22T03:10:05;100640.75;;;17.55;100.00
34925;BME280;21130;51.728;8.748;2023-06-22T03:12:33;100642.47;;;17.56;100.00
34925;BME280;21130;51.728;8.748;2023-06-22T03:15:00;100641.06;;;17.54;100.00
34925;BME280;21130;51.728;8.748;2023-06-22T03:17:26;100636.56;;;17.53;100.00
34925;BME280;21130;51.728;8.748;2023-06-22T03:19:52;100636.84;;;17.56;100.00
34925;BME280;21130;51.728;8.748;2023-06-22T03:22:19;100630.13;;;17.52;100.00
34925;BME280;21130;51.728;8.748;2023-06-22T03:24:45;100636.03;;;17.51;100.00
34925;BME280;21130;51.728;8.748;2023-06-22T03:27:12;100623.13;;;17.49;100.00
34925;BME280;21130;51.728;8.748;2023-06-22T03:29:40;100625.94;;;17.49;100.00
34925;BME280;21130;51.728;8.748;2023-06-22T03:32:06;100627.63;;;17.51;100.00
34925;BME280;21130;51.728;8.748;2023-06-22T03:34:33;100627.63;;;17.51;100.00
34925;BME280;21130;51.728;8.748;2023-06-22T03:37:01;100621.69;;;17.52;100.00
34925;BME280;21130;51.728;8.748;2023-06-22T03:39:28;100617.47;;;17.55;100.00
34925;BME280;21130;51.728;8.748;2023-06-22T03:41:54;100614.41;;;17.56;100.00
34925;BME280;21130;51.728;8.748;2023-06-22T03:44:22;100615.47;;;17.60;100.00
34925;BME280;21130;51.728;8.748;2023-06-22T03:46:49;100615.78;;;17.59;100.00
34925;BME280;21130;51.728;8.748;2023-06-22T03:49:16;100607.34;;;17.64;100.00
34925;BME280;21130;51.728;8.748;2023-06-22T03:51:42;100607.88;;;17.66;100.00
34925;BME280;21130;51.728;8.748;2023-06-22T03:54:09;100602.53;;;17.69;100.00
34925;BME280;21130;51.728;8.748;2023-06-22T03:56:35;100616.84;;;17.73;100.00
34925;BME280;21130;51.728;8.748;2023-06-22T03:59:02;100607.28;;;17.74;100.00
34925;BME280;21130;51.728;8.748;2023-06-22T04:01:28;100609.50;;;17.77;100.00
34925;BME280;21130;51.728;8.748;2023-06-22T04:03:56;100602.47;;;17.80;100.00
34925;BME280;21130;51.728;8.748;2023-06-22T04:06:22;100613.13;;;17.83;100.00
34925;BME280;21130;51.728;8.748;2023-06-22T04:08:49;100630.25;;;17.86;100.00
34925;BME280;21130;51.728;8.748;2023-06-22T04:11:16;100622.06;;;17.90;100.00
34925;BME280;21130;51.728;8.748;2023-06-22T04:13:42;100631.59;;;17.94;100.00
34925;BME280;21130;51.728;8.748;2023-06-22T04:16:09;100643.06;;;17.98;100.00
34925;BME280;21130;51.728;8.748;2023-06-22T04:18:35;100637.72;;;18.01;100.00
34925;BME280;21130;51.728;8.748;2023-06-22T04:21:03;100633.19;;;18.05;100.00
34925;BME280;21130;51.728;8.748;2023-06-22T04:23:29;100633.47;;;18.09;100.00
34925;BME280;21130;51.728;8.748;2023-06-22T04:25:56;100635.09;;;18.15;100.00
34925;BME280;21130;51.728;8.748;2023-06-22T04:28:23;100635.88;;;18.21;100.00
34925;BME280;21130;51.728;8.748;2023-06-22T04:30:49;100624.06;;;18.24;100.00
34925;BME280;21130;51.728;8.748;2023-06-22T04:33:16;100624.03;;;18.29;100.00
34925;BME280;21130;51.728;8.748;2023-06-22T04:35:45;100631.59;;;18.33;100.00
34925;BME280;21130;51.728;8.748;2023-06-22T04:38:15;100621.72;;;18.36;100.00
34925;BME280;21130;51.728;8.748;2023-06-22T04:40:41;100627.03;;;18.38;100.00
34925;BME280;21130;51.728;8.748;2023-06-22T04:43:07;100622.53;;;18.42;100.00
34925;BME280;21130;51.728;8.748;2023-06-22T04:45:35;100623.53;;;18.56;100.00
34925;BME280;21130;51.728;8.748;2023-06-22T04:48:03;100623.97;;;18.63;100.00
34925;BME280;21130;51.728;8.748;2023-06-22T04:50:30;100624.63;;;18.55;100.00
34925;BME280;21130;51.728;8.748;2023-06-22T04:52:56;100618.13;;;18.60;100.00
34925;BME280;21130;51.728;8.748;2023-06-22T04:55:24;100601.50;;;18.63;100.00
34925;BME280;21130;51.728;8.748;2023-06-22T04:57:51;100598.63;;;18.68;100.00
34925;BME280;21130;51.728;8.748;2023-06-22T05:00:18;100593.53;;;18.75;100.00
34925;BME280;21130;51.728;8.748;2023-06-22T05:02:47;100593.19;;;18.82;100.00
34925;BME280;21130;51.728;8.748;2023-06-22T05:05:13;100594.78;;;18.88;100.00
34925;BME280;21130;51.728;8.748;2023-06-22T05:07:41;100592.47;;;18.95;100.00
34925;BME280;21130;51.728;8.748;2023-06-22T05:10:09;100604.53;;;19.01;100.00
34925;BME280;21130;51.728;8.748;2023-06-22T05:12:40;100615.16;;;19.04;100.00
34925;BME280;21130;51.728;8.748;2023-06-22T05:15:07;100607.22;;;19.11;100.00
34925;BME280;21130;51.728;8.748;2023-06-22T05:17:34;100605.44;;;19.15;100.00
34925;BME280;21130;51.728;8.748;2023-06-22T05:20:01;100596.88;;;19.26;100.00
34925;BME280;21130;51.728;8.748;2023-06-22T05:22:31;100598.50;;;19.32;100.00
34925;BME280;21130;51.728;8.748;2023-06-22T05:24:58;100598.06;;;19.43;100.00
34925;BME280;21130;51.728;8.748;2023-06-22T05:27:24;100593.22;;;19.49;100.00
34925;BME280;21130;51.728;8.748;2023-06-22T05:29:52;100600.34;;;19.60;100.00
34925;BME280;21130;51.728;8.748;2023-06-22T05:32:18;100592.16;;;19.64;100.00
34925;BME280;21130;51.728;8.748;2023-06-22T05:34:45;100595.75;;;19.70;100.00
34925;BME280;21130;51.728;8.748;2023-06-22T05:37:12;100594.84;;;19.74;100.00
34925;BME280;21130;51.728;8.748;2023-06-22T05:39:39;100596.38;;;19.85;100.00
34925;BME280;21130;51.728;8.748;2023-06-22T05:42:05;100596.81;;;19.93;100.00
34925;BME280;21130;51.728;8.748;2023-06-22T05:44:32;100594.16;;;20.01;100.00
34925;BME280;21130;51.728;8.748;2023-06-22T05:47:00;100601.91;;;20.10;100.00
34925;BME280;21130;51.728;8.748;2023-06-22T05:49:26;100595.28;;;20.19;100.00
34925;BME280;21130;51.728;8.748;2023-06-22T05:51:55;100602.81;;;20.24;100.00
34925;BME280;21130;51.728;8.748;2023-06-22T05:54:22;100597.00;;;20.34;100.00
34925;BME280;21130;51.728;8.748;2023-06-22T05:56:48;100603.91;;;20.42;100.00
34925;BME280;21130;51.728;8.748;2023-06-22T05:59:14;100610.38;;;20.42;100.00
34925;BME280;21130;51.728;8.748;2023-06-22T06:01:41;100606.09;;;20.45;100.00
34925;BME280;21130;51.728;8.748;2023-06-22T06:04:09;100608.53;;;20.52;100.00
34925;BME280;21130;51.728;8.748;2023-06-22T06:06:35;100611.59;;;20.55;100.00
34925;BME280;21130;51.728;8.748;2023-06-22T06:09:02;100609.59;;;20.56;100.00
34925;BME280;21130;51.728;8.748;2023-06-22T06:11:29;100607.31;;;20.58;100.00
34925;BME280;21130;51.728;8.748;2023-06-22T06:13:55;100616.75;;;20.67;100.00
34925;BME280;21130;51.728;8.748;2023-06-22T06:16:22;100615.28;;;20.69;100.00
34925;BME280;21130;51.728;8.748;2023-06-22T06:18:48;100615.50;;;20.73;100.00
34925;BME280;21130;51.728;8.748;2023-06-22T06:21:17;100618.84;;;20.75;100.00
34925;BME280;21130;51.728;8.748;2023-06-22T06:23:43;100625.81;;;20.64;100.00
34925;BME280;21130;51.728;8.748;2023-06-22T06:26:09;100632.69;;;20.58;100.00
34925;BME280;21130;51.728;8.748;2023-06-22T06:28:36;100648.06;;;20.46;100.00
34925;BME280;21130;51.728;8.748;2023-06-22T06:31:02;100638.25;;;20.44;100.00
34925;BME280;21130;51.728;8.748;2023-06-22T06:33:32;100648.94;;;20.28;100.00
34925;BME280;21130;51.728;8.748;2023-06-22T06:35:58;100645.38;;;20.22;100.00
34925;BME280;21130;51.728;8.748;2023-06-22T06:38:28;100653.69;;;20.14;100.00
34925;BME280;21130;51.728;8.748;2023-06-22T06:40:55;100659.09;;;20.10;100.00
34925;BME280;21130;51.728;8.748;2023-06-22T06:43:21;100659.72;;;20.07;100.00
34925;BME280;21130;51.728;8.748;2023-06-22T06:45:48;100659.19;;;20.05;100.00
34925;BME280;21130;51.728;8.748;2023-06-22T06:48:15;100660.09;;;20.00;100.00
34925;BME280;21130;51.728;8.748;2023-06-22T06:50:43;100660.16;;;19.95;100.00
34925;BME280;21130;51.728;8.748;2023-06-22T06:53:09;100656.50;;;19.95;100.00
34925;BME280;21130;51.728;8.748;2023-06-22T06:55:37;100655.69;;;19.94;100.00
34925;BME280;21130;51.728;8.748;2023-06-22T06:58:04;100649.97;;;19.99;100.00
34925;BME280;21130;51.728;8.748;2023-06-22T07:00:33;100652.72;;;20.04;100.00
34925;BME280;21130;51.728;8.748;2023-06-22T07:03:01;100655.13;;;20.11;100.00
34925;BME280;21130;51.728;8.748;2023-06-22T07:05:27;100651.00;;;20.22;100.00
34925;BME280;21130;51.728;8.748;2023-06-22T07:07:53;100649.09;;;20.37;100.00
34925;BME280;21130;51.728;8.748;2023-06-22T07:10:20;100652.50;;;20.34;100.00
34925;BME280;21130;51.728;8.748;2023-06-22T07:12:48;100650.47;;;20.39;100.00
34925;BME280;21130;51.728;8.748;2023-06-22T07:15:14;100648.69;;;20.43;100.00
34925;BME280;21130;51.728;8.748;2023-06-22T07:17:41;100651.41;;;20.48;100.00
34925;BME280;21130;51.728;8.748;2023-06-22T07:20:08;100641.50;;;20.51;100.00
34925;BME280;21130;51.728;8.748;2023-06-22T07:22:37;100637.94;;;20.45;100.00
34925;BME280;21130;51.728;8.748;2023-06-22T07:25:04;100635.03;;;20.50;100.00
34925;BME280;21130;51.728;8.748;2023-06-22T07:27:36;100625.69;;;20.55;100.00
34925;BME280;21130;51.728;8.748;2023-06-22T07:30:06;100628.94;;;20.62;100.00
34925;BME280;21130;51.728;8.748;2023-06-22T07:32:33;100618.50;;;20.63;100.00
34925;BME280;21130;51.728;8.748;2023-06-22T07:34:59;100612.03;;;20.62;100.00
34925;BME280;21130;51.728;8.748;2023-06-22T07:37:27;100606.31;;;20.67;100.00
34925;BME280;21130;51.728;8.748;2023-06-22T07:39:54;100604.84;;;20.70;100.00
34925;BME280;21130;51.728;8.748;2023-06-22T07:42:24;100604.00;;;20.69;100.00
34925;BME280;21130;51.728;8.748;2023-06-22T07:44:50;100596.28;;;20.75;100.00
34925;BME280;21130;51.728;8.748;2023-06-22T07:47:18;100601.91;;;20.75;100.00
34925;BME280;21130;51.728;8.748;2023-06-22T07:49:45;100598.38;;;20.69;100.00
34925;BME280;21130;51.728;8.748;2023-06-22T07:52:11;100600.84;;;20.71;100.00
34925;BME280;21130;51.728;8.748;2023-06-22T07:54:38;100626.38;;;20.80;100.00
34925;BME280;21130;51.728;8.748;2023-06-22T07:57:05;100623.13;;;20.86;100.00
34925;BME280;21130;51.728;8.748;2023-06-22T07:59:32;100616.56;;;20.91;100.00
34925;BME280;21130;51.728;8.748;2023-06-22T08:01:59;100614.69;;;21.00;100.00
34925;BME280;21130;51.728;8.748;2023-06-22T08:04:27;100610.00;;;21.09;100.00
34925;BME280;21130;51.728;8.748;2023-06-22T08:06:54;100600.88;;;21.26;100.00
34925;BME280;21130;51.728;8.748;2023-06-22T08:09:20;100594.22;;;21.50;100.00
34925;BME280;21130;51.728;8.748;2023-06-22T08:11:47;100596.28;;;21.72;100.00
34925;BME280;21130;51.728;8.748;2023-06-22T08:14:14;100592.44;;;21.90;100.00
34925;BME280;21130;51.728;8.748;2023-06-22T08:16:41;100585.47;;;22.10;100.00
34925;BME280;21130;51.728;8.748;2023-06-22T08:19:07;100583.31;;;22.30;100.00
34925;BME280;21130;51.728;8.748;2023-06-22T08:21:35;100573.25;;;22.46;100.00
34925;BME280;21130;51.728;8.748;2023-06-22T08:24:01;100572.25;;;22.73;100.00
34925;BME280;21130;51.728;8.748;2023-06-22T08:26:28;100559.81;;;22.83;100.00
34925;BME280;21130;51.728;8.748;2023-06-22T08:28:54;100555.34;;;22.91;100.00
34925;BME280;21130;51.728;8.748;2023-06-22T08:31:20;100549.13;;;23.20;100.00
34925;BME280;21130;51.728;8.748;2023-06-22T08:33:47;100543.69;;;23.41;100.00
34925;BME280;21130;51.728;8.748;2023-06-22T08:36:13;100560.50;;;23.37;100.00
34925;BME280;21130;51.728;8.748;2023-06-22T08:38:42;100551.09;;;23.85;100.00
34925;BME280;21130;51.728;8.748;2023-06-22T08:41:09;100545.75;;;24.19;100.00
34925;BME280;21130;51.728;8.748;2023-06-22T08:43:36;100540.34;;;24.61;100.00
34925;BME280;21130;51.728;8.748;2023-06-22T08:46:02;100532.03;;;24.85;100.00
34925;BME280;21130;51.728;8.748;2023-06-22T08:48:30;100538.09;;;25.13;100.00
34925;BME280;21130;51.728;8.748;2023-06-22T08:50:56;100527.91;;;25.42;100.00
34925;BME280;21130;51.728;8.748;2023-06-22T08:53:22;100533.53;;;25.72;100.00
34925;BME280;21130;51.728;8.748;2023-06-22T08:55:50;100527.38;;;25.91;100.00
34925;BME280;21130;51.728;8.748;2023-06-22T08:58:16;100534.16;;;26.19;100.00
34925;BME280;21130;51.728;8.748;2023-06-22T09:00:45;100530.75;;;26.26;100.00
34925;BME280;21130;51.728;8.748;2023-06-22T09:03:12;100520.31;;;26.30;100.00
34925;BME280;21130;51.728;8.748;2023-06-22T09:05:38;100516.78;;;26.45;100.00
34925;BME280;21130;51.728;8.748;2023-06-22T09:08:05;100514.34;;;26.23;100.00
34925;BME280;21130;51.728;8.748;2023-06-22T09:10:31;100515.69;;;26.59;100.00
34925;BME280;21130;51.728;8.748;2023-06-22T09:12:59;100509.75;;;26.64;100.00
34925;BME280;21130;51.728;8.748;2023-06-22T09:15:25;100509.63;;;26.60;100.00
34925;BME280;21130;51.728;8.748;2023-06-22T09:17:52;100502.06;;;26.89;100.00
34925;BME280;21130;51.728;8.748;2023-06-22T09:20:19;100494.59;;;27.21;100.00
34925;BME280;21130;51.728;8.748;2023-06-22T09:22:46;100506.41;;;27.48;100.00
34925;BME280;21130;51.728;8.748;2023-06-22T09:25:12;100498.53;;;27.82;100.00
34925;BME280;21130;51.728;8.748;2023-06-22T09:27:38;100490.03;;;28.13;100.00
34925;BME280;21130;51.728;8.748;2023-06-22T09:30:07;100490.09;;;28.01;100.00
34925;BME280;21130;51.728;8.748;2023-06-22T09:32:34;100489.13;;;28.53;100.00
34925;BME280;21130;51.728;8.748;2023-06-22T09:35:03;100470.44;;;28.72;100.00
34925;BME280;21130;51.728;8.748;2023-06-22T09:37:31;100466.38;;;28.73;99.53
34925;BME280;21130;51.728;8.748;2023-06-22T09:39:58;100470.50;;;28.91;100.00
34925;BME280;21130;51.728;8.748;2023-06-22T09:42:24;100458.81;;;28.49;100.00
34925;BME280;21130;51.728;8.748;2023-06-22T09:44:50;100449.56;;;29.03;99.56
34925;BME280;21130;51.728;8.748;2023-06-22T09:47:18;100446.28;;;29.36;100.00
34925;BME280;21130;51.728;8.748;2023-06-22T09:49:44;100437.59;;;29.68;93.29
34925;BME280;21130;51.728;8.748;2023-06-22T09:52:11;100440.28;;;30.42;93.13
34925;BME280;21130;51.728;8.748;2023-06-22T09:54:37;100444.13;;;29.88;90.75
34925;BME280;21130;51.728;8.748;2023-06-22T09:57:04;100447.69;;;29.81;88.08
34925;BME280;21130;51.728;8.748;2023-06-22T09:59:30;100440.63;;;30.18;85.03
34925;BME280;21130;51.728;8.748;2023-06-22T10:01:57;100434.81;;;30.14;87.24
34925;BME280;21130;51.728;8.748;2023-06-22T10:04:24;100438.25;;;30.43;83.16
34925;BME280;21130;51.728;8.748;2023-06-22T10:06:52;100445.19;;;30.88;79.25
34925;BME280;21130;51.728;8.748;2023-06-22T10:09:18;100445.19;;;30.88;76.29
34925;BME280;21130;51.728;8.748;2023-06-22T10:11:44;100446.06;;;30.92;73.87
34925;BME280;21130;51.728;8.748;2023-06-22T10:14:20;100448.44;;;30.40;76.38
34925;BME280;21130;51.728;8.748;2023-06-22T10:16:48;100452.69;;;30.73;79.87
34925;BME280;21130;51.728;8.748;2023-06-22T10:19:14;100443.56;;;30.67;71.45
34925;BME280;21130;51.728;8.748;2023-06-22T10:21:42;100444.16;;;30.30;79.86
34925;BME280;21130;51.728;8.748;2023-06-22T10:24:08;100445.34;;;30.29;76.22
34925;BME280;21130;51.728;8.748;2023-06-22T10:26:35;100450.84;;;29.96;78.00
34925;BME280;21130;51.728;8.748;2023-06-22T10:29:02;100435.06;;;30.25;70.96
34925;BME280;21130;51.728;8.748;2023-06-22T10:31:29;100441.59;;;29.83;77.85
34925;BME280;21130;51.728;8.748;2023-06-22T10:33:56;100427.84;;;29.53;83.32
34925;BME280;21130;51.728;8.748;2023-06-22T10:36:23;100413.75;;;29.44;84.33
34925;BME280;21130;51.728;8.748;2023-06-22T10:38:50;100410.53;;;29.46;89.91
34925;BME280;21130;51.728;8.748;2023-06-22T10:41:18;100396.50;;;29.02;89.65
34925;BME280;21130;51.728;8.748;2023-06-22T10:43:44;100388.81;;;29.22;91.67
34925;BME280;21130;51.728;8.748;2023-06-22T10:46:11;100384.97;;;29.34;92.57
34925;BME280;21130;51.728;8.748;2023-06-22T10:48:38;100382.50;;;29.32;88.42
34925;BME280;21130;51.728;8.748;2023-06-22T10:51:05;100381.13;;;29.45;88.42
34925;BME280;21130;51.728;8.748;2023-06-22T10:53:32;100380.22;;;29.41;92.14
34925;BME280;21130;51.728;8.748;2023-06-22T10:55:59;100377.66;;;29.56;91.08
34925;BME280;21130;51.728;8.748;2023-06-22T10:58:26;100371.41;;;29.31;90.64
34925;BME280;21130;51.728;8.748;2023-06-22T11:00:52;100364.06;;;29.29;92.19
34925;BME280;21130;51.728;8.748;2023-06-22T11:03:19;100369.16;;;29.20;94.35
34925;BME280;21130;51.728;8.748;2023-06-22T11:05:45;100365.78;;;28.99;93.81
34925;BME280;21130;51.728;8.748;2023-06-22T11:08:13;100353.00;;;28.93;93.43
34925;BME280;21130;51.728;8.748;2023-06-22T11:13:47;100347.47;;;29.00;93.06
34925;BME280;21130;51.728;8.748;2023-06-22T11:16:14;100350.50;;;28.91;93.69
34925;BME280;21130;51.728;8.748;2023-06-22T11:18:41;100350.22;;;28.77;91.30
34925;BME280;21130;51.728;8.748;2023-06-22T11:21:07;100334.03;;;29.20;95.80
34925;BME280;21130;51.728;8.748;2023-06-22T11:23:35;100330.94;;;29.48;89.95
34925;BME280;21130;51.728;8.748;2023-06-22T11:26:02;100332.94;;;29.86;89.01
34925;BME280;21130;51.728;8.748;2023-06-22T11:28:28;100323.34;;;29.98;80.50
34925;BME280;21130;51.728;8.748;2023-06-22T11:30:56;100316.72;;;29.94;83.06
34925;BME280;21130;51.728;8.748;2023-06-22T11:33:22;100321.13;;;29.88;81.35
34925;BME280;21130;51.728;8.748;2023-06-22T11:35:49;100314.81;;;29.79;82.50
34925;BME280;21130;51.728;8.748;2023-06-22T11:38:15;100307.63;;;29.88;85.52
34925;BME280;21130;51.728;8.748;2023-06-22T11:40:42;100290.63;;;30.22;78.92
34925;BME280;21130;51.728;8.748;2023-06-22T11:43:08;100293.78;;;30.17;78.32
34925;BME280;21130;51.728;8.748;2023-06-22T11:45:34;100288.22;;;30.77;66.79
34925;BME280;21130;51.728;8.748;2023-06-22T11:48:02;100287.78;;;30.75;64.75
34925;BME280;21130;51.728;8.748;2023-06-22T11:50:29;100288.50;;;31.29;63.20
34925;BME280;21130;51.728;8.748;2023-06-22T11:52:59;100291.44;;;31.33;63.29
34925;BME280;21130;51.728;8.748;2023-06-22T11:55:26;100284.63;;;31.14;59.98
34925;BME280;21130;51.728;8.748;2023-06-22T11:57:54;100275.41;;;30.68;59.73
34925;BME280;21130;51.728;8.748;2023-06-22T12:00:21;100272.44;;;30.34;61.15
34925;BME280;21130;51.728;8.748;2023-06-22T12:02:49;100274.06;;;29.85;71.81
34925;BME280;21130;51.728;8.748;2023-06-22T12:05:19;100285.75;;;29.77;74.20
34925;BME280;21130;51.728;8.748;2023-06-22T12:07:45;100278.19;;;29.45;77.64
34925;BME280;21130;51.728;8.748;2023-06-22T12:10:12;100285.94;;;28.86;88.19
34925;BME280;21130;51.728;8.748;2023-06-22T12:12:38;100280.13;;;28.63;94.20
34925;BME280;21130;51.728;8.748;2023-06-22T12:15:05;100285.13;;;28.35;98.10
34925;BME280;21130;51.728;8.748;2023-06-22T12:17:33;100297.25;;;27.96;100.00
34925;BME280;21130;51.728;8.748;2023-06-22T12:19:59;100300.13;;;27.68;100.00
34925;BME280;21130;51.728;8.748;2023-06-22T12:22:28;100307.72;;;27.48;100.00
34925;BME280;21130;51.728;8.748;2023-06-22T12:24:54;100310.81;;;27.43;100.00
34925;BME280;21130;51.728;8.748;2023-06-22T12:27:20;100307.25;;;27.18;100.00
34925;BME280;21130;51.728;8.748;2023-06-22T12:29:47;100324.34;;;27.18;100.00
34925;BME280;21130;51.728;8.748;2023-06-22T12:32:14;100325.03;;;26.87;100.00
34925;BME280;21130;51.728;8.748;2023-06-22T12:34:41;100337.63;;;26.49;100.00
34925;BME280;21130;51.728;8.748;2023-06-22T12:37:08;100341.28;;;26.13;100.00
34925;BME280;21130;51.728;8.748;2023-06-22T12:39:36;100354.94;;;25.74;100.00
34925;BME280;21130;51.728;8.748;2023-06-22T12:42:03;100369.56;;;25.30;100.00
34925;BME280;21130;51.728;8.748;2023-06-22T12:44:30;100364.13;;;24.95;100.00
34925;BME280;21130;51.728;8.748;2023-06-22T12:46:57;100368.81;;;24.70;100.00
34925;BME280;21130;51.728;8.748;2023-06-22T12:49:23;100346.25;;;24.44;100.00